createdAt,value
2018-08-03T00:00:56.289Z,74.29
2018-08-03T00:02:03.788Z,74.00
2018-08-03T00:02:56.261Z,74.29
2018-08-03T00:04:04.527Z,74.96
2018-08-03T00:05:05.577Z,75.26
2018-08-03T00:05:56.220Z,74.29
2018-08-03T00:06:56.207Z,74.29
2018-08-03T00:07:56.214Z,75.26
2018-08-03T00:08:56.200Z,74.29
2018-08-03T00:09:56.180Z,74.58
2018-08-03T00:10:56.161Z,75.54
2018-08-03T00:11:56.172Z,75.35
2018-08-03T00:12:56.164Z,75.64
2018-08-03T00:13:56.136Z,75.16
2018-08-03T00:14:56.126Z,75.06
2018-08-03T00:15:56.131Z,75.35
2018-08-03T00:16:56.108Z,75.35
2018-08-03T00:17:56.114Z,75.16
2018-08-03T00:18:56.090Z,75.16
2018-08-03T00:19:56.092Z,75.45
2018-08-03T00:20:56.065Z,75.74
2018-08-03T00:21:56.062Z,75.74
2018-08-03T00:22:56.044Z,75.84
2018-08-03T00:23:56.057Z,75.54
2018-08-03T00:24:56.074Z,76.42
2018-08-03T00:25:56.020Z,76.03
2018-08-03T00:26:56.006Z,76.22
2018-08-03T00:27:56.019Z,75.84
2018-08-03T00:28:56.028Z,75.60
2018-08-03T00:29:55.990Z,76.03
2018-08-03T00:30:55.968Z,76.37
2018-08-03T00:31:55.952Z,77.09
2018-08-03T00:32:55.945Z,76.18
2018-08-03T00:33:55.933Z,77.05
2018-08-03T00:34:55.920Z,76.57
2018-08-03T00:35:55.954Z,77.05
2018-08-03T00:36:55.932Z,77.34
2018-08-03T00:37:55.892Z,77.63
2018-08-03T00:38:55.892Z,77.15
2018-08-03T00:39:55.892Z,77.25
2018-08-03T00:40:55.872Z,77.73
2018-08-03T00:41:55.882Z,77.50
2018-08-03T00:42:55.851Z,78.36
2018-08-03T00:43:55.838Z,78.85
2018-08-03T00:44:55.824Z,78.56
2018-08-03T00:45:55.812Z,78.36
2018-08-03T00:46:55.840Z,78.08
2018-08-03T00:47:55.798Z,78.94
2018-08-03T00:48:55.783Z,79.24
2018-08-03T00:49:55.775Z,79.72
2018-08-03T00:50:55.769Z,79.14
2018-08-03T00:51:55.776Z,78.75
2018-08-03T00:52:55.745Z,79.14
2018-08-03T00:53:55.734Z,79.14
2018-08-03T00:54:55.726Z,80.10
2018-08-03T00:55:55.718Z,79.52
2018-08-03T00:56:55.707Z,79.62
2018-08-03T00:57:55.713Z,79.43
2018-08-03T00:58:55.688Z,80.30
2018-08-03T00:59:55.677Z,79.91
2018-08-03T01:00:55.667Z,80.39
2018-08-03T01:01:55.655Z,79.43
2018-08-03T01:02:55.648Z,79.33
2018-08-03T01:03:55.653Z,79.33
2018-08-03T01:04:55.626Z,79.52
2018-08-03T01:05:55.629Z,79.72
2018-08-03T01:06:55.604Z,79.97
2018-08-03T01:07:55.592Z,79.97
2018-08-03T01:08:55.598Z,80.78
2018-08-03T01:09:55.575Z,81.90
2018-08-03T01:10:55.572Z,81.60
2018-08-03T01:11:55.556Z,81.02
2018-08-03T01:12:55.543Z,81.02
2018-08-03T01:13:55.554Z,81.41
2018-08-03T01:14:55.534Z,81.32
2018-08-03T01:15:55.515Z,82.09
2018-08-03T01:16:55.505Z,81.12
2018-08-03T01:17:55.499Z,80.93
2018-08-03T01:18:55.482Z,81.22
2018-08-03T01:19:55.501Z,82.38
2018-08-03T01:20:55.460Z,81.60
2018-08-03T01:21:55.464Z,81.41
2018-08-03T01:22:55.441Z,82.48
2018-08-03T01:23:55.451Z,82.18
2018-08-03T01:24:55.428Z,82.76
2018-08-03T01:25:55.428Z,81.80
2018-08-03T01:26:55.402Z,81.32
2018-08-03T01:27:55.398Z,81.99
2018-08-03T01:28:55.383Z,81.41
2018-08-03T01:29:55.370Z,82.18
2018-08-03T01:30:55.361Z,82.86
2018-08-03T01:31:55.373Z,82.67
2018-08-03T01:32:55.336Z,81.99
2018-08-03T01:33:55.332Z,81.80
2018-08-03T01:34:55.317Z,81.80
2018-08-03T01:35:55.320Z,81.99
2018-08-03T01:36:55.328Z,80.93
2018-08-03T01:37:55.398Z,80.93
2018-08-03T01:39:03.643Z,81.90
2018-08-03T01:40:03.681Z,81.90
2018-08-03T01:40:55.281Z,81.90
2018-08-03T01:42:02.785Z,81.80
2018-08-03T01:43:03.245Z,82.14
2018-08-03T01:43:55.239Z,82.38
2018-08-03T01:44:55.217Z,82.82
2018-08-03T01:45:55.212Z,83.30
2018-08-03T01:47:16.226Z,82.62
2018-08-03T01:47:55.185Z,83.50
2018-08-03T01:48:55.182Z,83.40
2018-08-03T01:49:55.176Z,83.40
2018-08-03T01:50:55.158Z,84.17
2018-08-03T01:51:55.167Z,83.40
2018-08-03T01:52:55.142Z,83.50
2018-08-03T01:53:55.136Z,83.69
2018-08-03T01:54:55.105Z,83.88
2018-08-03T01:55:55.104Z,85.23
2018-08-03T01:56:55.102Z,84.75
2018-08-03T01:57:55.093Z,85.42
2018-08-03T01:58:55.067Z,85.13
2018-08-03T01:59:55.069Z,84.65
2018-08-03T02:00:55.047Z,84.94
2018-08-03T02:01:55.034Z,84.84
2018-08-03T02:02:55.027Z,85.52
2018-08-03T02:03:55.032Z,85.13
2018-08-03T02:04:55.017Z,87.06
2018-08-03T02:05:54.993Z,85.91
2018-08-03T02:06:54.986Z,85.91
2018-08-03T02:07:54.982Z,86.19
2018-08-03T02:08:54.989Z,86.29
2018-08-03T02:09:54.959Z,85.52
2018-08-03T02:10:54.944Z,85.91
2018-08-03T02:11:54.935Z,86.10
2018-08-03T02:12:54.924Z,85.91
2018-08-03T02:13:54.925Z,86.29
2018-08-03T02:14:54.903Z,86.54
2018-08-03T02:15:54.899Z,86.00
2018-08-03T02:16:54.892Z,85.38
2018-08-03T02:17:54.872Z,84.80
2018-08-03T02:18:54.868Z,85.38
2018-08-03T02:19:54.843Z,87.02
2018-08-03T02:20:54.831Z,87.02
2018-08-03T02:21:54.842Z,87.70
2018-08-03T02:22:54.811Z,88.27
2018-08-03T02:23:54.819Z,87.98
2018-08-03T02:24:54.789Z,88.08
2018-08-03T02:25:54.783Z,87.30
2018-08-03T02:26:54.769Z,87.50
2018-08-03T02:27:54.767Z,88.08
2018-08-03T02:28:54.751Z,87.88
2018-08-03T02:29:54.757Z,87.98
2018-08-03T02:30:54.737Z,88.65
2018-08-03T02:31:54.722Z,89.81
2018-08-03T02:32:54.713Z,89.43
2018-08-03T02:33:54.730Z,89.14
2018-08-03T02:34:54.705Z,88.75
2018-08-03T02:35:54.690Z,88.65
2018-08-03T02:36:54.667Z,88.75
2018-08-03T02:37:54.655Z,88.65
2018-08-03T02:38:54.649Z,88.61
2018-08-03T02:39:54.699Z,89.09
2018-08-03T02:40:54.657Z,89.67
2018-08-03T02:41:54.629Z,89.29
2018-08-03T02:42:54.600Z,89.19
2018-08-03T02:43:54.592Z,89.39
2018-08-03T02:44:54.582Z,90.44
2018-08-03T02:45:54.590Z,90.06
2018-08-03T02:46:54.561Z,90.34
2018-08-03T02:47:54.545Z,90.34
2018-08-03T02:48:54.535Z,90.16
2018-08-03T02:49:54.531Z,90.83
2018-08-03T02:50:54.530Z,90.73
2018-08-03T02:51:54.516Z,91.41
2018-08-03T02:52:54.509Z,91.12
2018-08-03T02:53:54.486Z,90.92
2018-08-03T02:54:54.483Z,90.16
2018-08-03T02:55:54.480Z,89.67
2018-08-03T02:56:54.451Z,91.41
2018-08-03T02:57:54.458Z,92.27
2018-08-03T02:58:54.433Z,91.12
2018-08-03T02:59:54.443Z,90.34
2018-08-03T03:00:54.430Z,89.86
2018-08-03T03:01:54.414Z,89.96
2018-08-03T03:02:54.390Z,91.12
2018-08-03T03:03:54.392Z,90.44
2018-08-03T03:04:54.363Z,89.86
2018-08-03T03:05:54.360Z,89.19
2018-08-03T03:06:54.381Z,89.67
2018-08-03T03:07:54.334Z,89.86
2018-08-03T03:08:54.316Z,90.34
2018-08-03T03:09:54.318Z,89.86
2018-08-03T03:10:54.311Z,92.56
2018-08-03T03:11:54.308Z,92.27
2018-08-03T03:12:54.276Z,91.69
2018-08-03T03:13:54.267Z,92.08
2018-08-03T03:14:54.256Z,91.84
2018-08-03T03:15:54.247Z,92.56
2018-08-03T03:16:54.255Z,92.56
2018-08-03T03:17:54.225Z,92.52
2018-08-03T03:18:54.218Z,92.42
2018-08-03T03:19:54.199Z,93.19
2018-08-03T03:20:54.198Z,93.09
2018-08-03T03:21:54.203Z,94.15
2018-08-03T03:22:54.171Z,94.15
2018-08-03T03:23:54.174Z,94.34
2018-08-03T03:24:54.149Z,95.02
2018-08-03T03:25:54.145Z,94.54
2018-08-03T03:26:54.146Z,95.79
2018-08-03T03:27:54.120Z,94.54
2018-08-03T03:28:54.107Z,94.15
2018-08-03T03:29:54.103Z,96.08
2018-08-03T03:30:54.085Z,95.79
2018-08-03T03:31:54.073Z,93.57
2018-08-03T03:32:54.072Z,93.96
2018-08-03T03:33:54.069Z,93.57
2018-08-03T03:34:54.065Z,92.80
2018-08-03T03:35:54.026Z,92.52
2018-08-03T03:36:54.016Z,92.32
2018-08-03T03:37:54.005Z,93.67
2018-08-03T03:38:54.018Z,92.80
2018-08-03T03:39:53.986Z,93.96
2018-08-03T03:40:53.971Z,93.96
2018-08-03T03:41:53.965Z,93.57
2018-08-03T03:42:53.970Z,93.96
2018-08-03T03:43:53.959Z,93.38
2018-08-03T03:44:53.946Z,93.48
2018-08-03T03:45:53.938Z,92.80
2018-08-03T03:46:53.907Z,93.77
2018-08-03T03:47:53.901Z,93.57
2018-08-03T03:48:53.887Z,94.44
2018-08-03T03:49:53.890Z,94.82
2018-08-03T03:50:53.901Z,95.02
2018-08-03T03:51:53.878Z,95.60
2018-08-03T03:52:53.845Z,94.06
2018-08-03T03:53:53.831Z,95.69
2018-08-03T03:54:53.832Z,94.34
2018-08-03T03:55:53.828Z,93.96
2018-08-03T03:56:53.807Z,94.92
2018-08-03T03:57:53.789Z,94.06
2018-08-03T03:58:53.770Z,94.25
2018-08-03T03:59:53.777Z,95.12
2018-08-03T04:00:53.768Z,94.06
2018-08-03T04:01:53.740Z,94.54
2018-08-03T04:02:53.735Z,94.92
2018-08-03T04:03:53.738Z,94.34
2018-08-03T04:04:53.754Z,94.25
2018-08-03T04:05:53.699Z,93.57
2018-08-03T04:06:53.683Z,94.25
2018-08-03T04:07:53.686Z,94.64
2018-08-03T04:08:53.659Z,93.29
2018-08-03T04:09:53.667Z,94.34
2018-08-03T04:10:53.695Z,94.10
2018-08-03T04:11:53.635Z,92.80
2018-08-03T04:12:53.670Z,92.85
2018-08-03T04:13:53.631Z,93.04
2018-08-03T04:14:53.604Z,91.69
2018-08-03T04:15:53.625Z,91.12
2018-08-03T04:16:53.587Z,91.89
2018-08-03T04:17:53.578Z,94.64
2018-08-03T04:18:53.574Z,94.01
2018-08-03T04:19:53.570Z,94.20
2018-08-03T04:20:53.553Z,93.24
2018-08-03T04:21:53.529Z,93.24
2018-08-03T04:22:53.531Z,93.62
2018-08-03T04:23:53.498Z,92.56
2018-08-03T04:24:53.485Z,93.14
2018-08-03T04:25:53.516Z,93.43
2018-08-03T04:26:53.475Z,93.62
2018-08-03T04:27:53.482Z,92.76
2018-08-03T04:28:53.460Z,92.76
2018-08-03T04:29:53.440Z,92.66
2018-08-03T04:30:53.423Z,93.24
2018-08-03T04:31:53.437Z,93.52
2018-08-03T04:32:53.417Z,92.56
2018-08-03T04:33:53.397Z,92.61
2018-08-03T04:34:53.403Z,91.64
2018-08-03T04:35:53.384Z,89.53
2018-08-03T04:36:53.405Z,88.65
2018-08-03T04:37:53.392Z,88.27
2018-08-03T04:38:53.364Z,87.98
2018-08-03T04:39:53.344Z,88.17
2018-08-03T04:40:53.367Z,88.17
2018-08-03T04:41:53.326Z,88.75
2018-08-03T04:42:53.321Z,88.08
2018-08-03T04:43:53.304Z,89.28
2018-08-03T04:44:53.302Z,87.64
2018-08-03T04:45:53.309Z,86.77
2018-08-03T04:46:53.252Z,86.87
2018-08-03T04:47:53.282Z,86.39
2018-08-03T04:48:53.253Z,86.58
2018-08-03T04:49:53.218Z,84.84
2018-08-03T04:50:53.212Z,85.33
2018-08-03T04:51:53.204Z,85.91
2018-08-03T04:52:53.202Z,85.13
2018-08-03T04:53:53.213Z,85.81
2018-08-03T04:54:53.175Z,85.13
2018-08-03T04:55:53.181Z,87.35
2018-08-03T04:56:53.148Z,86.87
2018-08-03T04:57:53.130Z,85.61
2018-08-03T04:59:14.135Z,85.71
2018-08-03T04:59:53.112Z,86.00
2018-08-03T05:00:53.116Z,86.25
2018-08-03T05:01:53.089Z,86.92
2018-08-03T05:02:53.084Z,87.54
2018-08-03T05:03:53.086Z,89.28
2018-08-03T05:04:53.054Z,87.70
2018-08-03T05:05:53.056Z,87.93
2018-08-03T05:06:53.032Z,87.54
2018-08-03T05:07:53.030Z,88.31
2018-08-03T05:08:53.345Z,88.02
2018-08-03T05:09:53.029Z,86.87
2018-08-03T05:10:52.990Z,85.52
2018-08-03T05:11:52.992Z,86.58
2018-08-03T05:12:52.976Z,85.52
2018-08-03T05:14:13.989Z,86.00
2018-08-03T05:14:52.953Z,86.29
2018-08-03T05:15:52.943Z,86.29
2018-08-03T05:16:52.928Z,85.33
2018-08-03T05:17:52.918Z,85.52
2018-08-03T05:18:52.908Z,85.23
2018-08-03T05:19:52.924Z,85.42
2018-08-03T05:20:52.890Z,85.91
2018-08-03T05:21:52.885Z,85.03
2018-08-03T05:22:52.883Z,85.42
2018-08-03T05:23:52.866Z,85.33
2018-08-03T05:24:52.860Z,84.94
2018-08-03T05:25:52.835Z,85.13
2018-08-03T05:26:52.827Z,85.37
2018-08-03T05:27:52.813Z,84.89
2018-08-03T05:28:52.796Z,85.37
2018-08-03T05:29:52.809Z,83.83
2018-08-03T05:30:52.782Z,83.92
2018-08-03T05:31:52.770Z,83.83
2018-08-03T05:32:52.779Z,83.48
2018-08-03T05:33:52.753Z,83.58
2018-08-03T05:34:52.734Z,83.58
2018-08-03T05:35:52.774Z,82.51
2018-08-03T05:36:52.718Z,82.42
2018-08-03T05:37:52.711Z,81.93
2018-08-03T05:38:52.711Z,80.87
2018-08-03T05:39:52.686Z,82.13
2018-08-03T05:40:52.679Z,82.23
2018-08-03T05:41:52.679Z,83.67
2018-08-03T05:42:52.669Z,82.13
2018-08-03T05:43:52.644Z,82.42
2018-08-03T05:44:52.636Z,81.84
2018-08-03T05:45:52.625Z,82.81
2018-08-03T05:46:52.660Z,83.29
2018-08-03T05:47:52.605Z,81.98
2018-08-03T05:48:52.591Z,81.11
2018-08-03T05:49:52.585Z,80.91
2018-08-03T05:50:52.567Z,81.11
2018-08-03T05:51:52.563Z,82.26
2018-08-03T05:52:52.574Z,80.53
2018-08-03T05:53:52.547Z,80.72
2018-08-03T05:55:13.543Z,80.33
2018-08-03T05:55:52.528Z,80.14
2018-08-03T05:56:52.509Z,79.47
2018-08-03T05:57:52.516Z,80.33
2018-08-03T05:58:52.526Z,81.01
2018-08-03T05:59:52.511Z,81.20
2018-08-03T06:00:52.484Z,81.40
2018-08-03T06:01:52.461Z,80.91
2018-08-03T06:02:52.452Z,81.05
2018-08-03T06:03:52.490Z,81.34
2018-08-03T06:04:52.489Z,79.60
2018-08-03T06:05:52.423Z,79.50
2018-08-03T06:06:52.410Z,79.99
2018-08-03T06:07:52.411Z,80.86
2018-08-03T06:08:52.391Z,79.22
2018-08-03T06:09:52.409Z,80.57
2018-08-03T06:10:52.377Z,80.38
2018-08-03T06:11:52.364Z,80.57
2018-08-03T06:12:52.351Z,79.31
2018-08-03T06:13:52.359Z,80.28
2018-08-03T06:14:52.632Z,79.41
2018-08-03T06:15:52.351Z,79.54
2018-08-03T06:16:52.313Z,78.67
2018-08-03T06:17:52.300Z,79.25
2018-08-03T06:18:52.299Z,78.77
2018-08-03T06:19:52.298Z,78.81
2018-08-03T06:20:52.275Z,78.91
2018-08-03T06:21:52.263Z,77.65
2018-08-03T06:22:52.247Z,77.45
2018-08-03T06:23:52.260Z,77.36
2018-08-03T06:24:52.247Z,76.78
2018-08-03T06:25:52.215Z,76.10
2018-08-03T06:26:52.211Z,78.03
2018-08-03T06:27:52.201Z,77.07
2018-08-03T06:28:52.209Z,77.36
2018-08-03T06:29:52.174Z,77.94
2018-08-03T06:30:52.170Z,76.10
2018-08-03T06:31:52.192Z,76.33
2018-08-03T06:32:52.151Z,76.43
2018-08-03T06:33:52.140Z,76.14
2018-08-03T06:34:52.153Z,76.14
2018-08-03T06:35:52.131Z,75.07
2018-08-03T06:36:52.121Z,74.15
2018-08-03T06:37:52.115Z,74.05
2018-08-03T06:38:52.094Z,73.08
2018-08-03T06:39:52.079Z,73.18
2018-08-03T06:40:52.190Z,72.73
2018-08-03T06:41:52.075Z,72.05
2018-08-03T06:42:52.071Z,72.15
2018-08-03T06:43:52.061Z,72.15
2018-08-03T06:44:52.044Z,71.28
2018-08-03T06:45:52.019Z,70.83
2018-08-03T06:46:52.013Z,71.12
2018-08-03T06:47:52.020Z,70.92
2018-08-03T06:48:51.996Z,72.18
2018-08-03T06:49:51.984Z,70.73
2018-08-03T06:50:51.972Z,70.54
2018-08-03T06:51:51.973Z,70.73
2018-08-03T06:52:51.973Z,70.34
2018-08-03T06:53:52.020Z,70.44
2018-08-03T06:54:51.932Z,69.57
2018-08-03T06:55:51.936Z,71.31
2018-08-03T06:56:51.918Z,70.57
2018-08-03T06:57:51.928Z,71.25
2018-08-03T06:58:51.922Z,69.31
2018-08-03T06:59:51.893Z,70.67
2018-08-03T07:00:51.886Z,69.02
2018-08-03T07:01:51.873Z,68.73
2018-08-03T07:02:51.954Z,68.34
2018-08-03T07:03:51.881Z,68.54
2018-08-03T07:04:51.845Z,68.76
2018-08-03T07:05:51.837Z,68.86
2018-08-03T07:06:51.833Z,68.18
2018-08-03T07:07:51.821Z,67.50
2018-08-03T07:08:51.804Z,68.15
2018-08-03T07:09:51.816Z,68.24
2018-08-03T07:10:51.785Z,69.24
2018-08-03T07:11:51.777Z,69.50
2018-08-03T07:12:51.781Z,69.70
2018-08-03T07:13:51.763Z,69.21
2018-08-03T07:14:51.841Z,70.09
2018-08-03T07:15:51.744Z,70.28
2018-08-03T07:16:52.284Z,69.89
2018-08-03T07:17:51.731Z,68.82
2018-08-03T07:18:51.714Z,69.99
2018-08-03T07:19:51.769Z,69.99
2018-08-03T07:20:51.717Z,70.67
2018-08-03T07:21:51.686Z,70.18
2018-08-03T07:22:51.699Z,71.15
2018-08-03T07:23:51.676Z,69.99
2018-08-03T07:24:51.664Z,69.93
2018-08-03T07:25:51.696Z,69.15
2018-08-03T07:26:51.646Z,68.34
2018-08-03T07:27:51.651Z,69.21
2018-08-03T07:28:51.620Z,68.37
2018-08-03T07:29:51.612Z,68.24
2018-08-03T07:30:51.625Z,68.47
2018-08-03T07:31:51.621Z,68.08
2018-08-03T07:32:51.589Z,67.69
2018-08-03T07:33:51.580Z,68.28
2018-08-03T07:34:51.568Z,69.06
2018-08-03T07:35:51.578Z,69.44
2018-08-03T07:36:51.574Z,69.15
2018-08-03T07:38:12.560Z,67.40
2018-08-03T07:38:51.533Z,67.02
2018-08-03T07:39:51.524Z,67.60
2018-08-03T07:40:51.518Z,67.69
2018-08-03T07:41:51.521Z,68.21
2018-08-03T07:42:51.506Z,68.37
2018-08-03T07:43:51.498Z,68.08
2018-08-03T07:44:51.515Z,67.54
2018-08-03T07:45:51.468Z,67.14
2018-08-03T07:46:51.456Z,66.27
2018-08-03T07:47:51.466Z,66.76
2018-08-03T07:48:51.448Z,67.14
2018-08-03T07:49:51.432Z,67.73
2018-08-03T07:50:51.424Z,66.89
2018-08-03T07:51:51.418Z,65.89
2018-08-03T07:52:51.425Z,66.50
2018-08-03T07:53:51.402Z,66.60
2018-08-03T07:54:51.386Z,65.63
2018-08-03T07:55:51.379Z,64.85
2018-08-03T07:56:51.387Z,64.85
2018-08-03T07:57:51.378Z,64.30
2018-08-03T07:58:51.353Z,64.30
2018-08-03T07:59:51.344Z,64.40
2018-08-03T08:00:51.335Z,64.49
2018-08-03T08:01:51.326Z,64.91
2018-08-03T08:02:51.334Z,64.91
2018-08-03T08:03:51.311Z,62.87
2018-08-03T08:04:51.305Z,63.07
2018-08-03T08:05:51.293Z,64.04
2018-08-03T08:06:51.290Z,65.14
2018-08-03T08:07:51.294Z,63.59
2018-08-03T08:08:51.274Z,64.07
2018-08-03T08:09:51.286Z,62.41
2018-08-03T08:10:51.249Z,62.81
2018-08-03T08:11:51.240Z,62.81
2018-08-03T08:12:51.232Z,63.97
2018-08-03T08:13:51.237Z,63.20
2018-08-03T08:14:51.213Z,62.71
2018-08-03T08:15:51.220Z,63.00
2018-08-03T08:16:51.248Z,62.74
2018-08-03T08:17:51.187Z,63.32
2018-08-03T08:18:51.184Z,62.45
2018-08-03T08:19:51.201Z,62.54
2018-08-03T08:20:51.170Z,62.96
2018-08-03T08:21:51.162Z,60.24
2018-08-03T08:22:51.144Z,62.02
2018-08-03T08:23:51.185Z,60.95
2018-08-03T08:24:51.143Z,60.66
2018-08-03T08:25:51.142Z,60.95
2018-08-03T08:26:51.115Z,58.64
2018-08-03T08:27:51.113Z,60.00
2018-08-03T08:28:51.102Z,59.33
2018-08-03T08:29:51.098Z,58.15
2018-08-03T08:30:51.195Z,59.03
2018-08-03T08:31:51.075Z,57.99
2018-08-03T08:32:51.089Z,59.16
2018-08-03T08:33:51.061Z,58.09
2018-08-03T08:34:51.055Z,59.16
2018-08-03T08:35:51.062Z,57.34
2018-08-03T08:36:51.038Z,57.43
2018-08-03T08:37:51.032Z,57.82
2018-08-03T08:38:51.033Z,58.44
2018-08-03T08:39:51.015Z,57.36
2018-08-03T08:40:51.006Z,58.44
2018-08-03T08:41:51.022Z,56.77
2018-08-03T08:42:50.992Z,55.34
2018-08-03T08:43:51.042Z,56.81
2018-08-03T08:44:50.975Z,56.71
2018-08-03T08:45:50.965Z,56.45
2018-08-03T08:46:50.975Z,55.86
2018-08-03T08:47:50.959Z,54.59
2018-08-03T08:48:50.966Z,55.76
2018-08-03T08:49:50.943Z,53.71
2018-08-03T08:50:50.949Z,54.32
2018-08-03T08:51:50.942Z,54.91
2018-08-03T08:52:50.972Z,54.03
2018-08-03T08:53:50.909Z,53.64
2018-08-03T08:54:50.949Z,54.71
2018-08-03T08:55:50.901Z,55.30
2018-08-03T08:56:50.889Z,54.83
2018-08-03T08:57:50.899Z,54.25
2018-08-03T08:58:50.891Z,54.44
2018-08-03T08:59:50.872Z,52.81
2018-08-03T09:00:50.894Z,53.59
2018-08-03T09:01:51.846Z,51.46
2018-08-03T09:02:50.889Z,50.81
2018-08-03T09:03:50.848Z,51.03
2018-08-03T09:04:50.840Z,49.38
2018-08-03T09:05:50.860Z,48.82
2018-08-03T09:06:50.894Z,49.46
2018-08-03T09:07:50.884Z,47.32
2018-08-03T09:08:50.820Z,45.79
2018-08-03T09:09:50.805Z,45.42
2018-08-03T09:10:50.801Z,45.13
2018-08-03T09:11:50.785Z,44.26
2018-08-03T09:12:50.842Z,43.23
2018-08-03T09:13:50.789Z,43.32
2018-08-03T09:14:50.768Z,43.71
2018-08-03T09:15:50.764Z,42.46
2018-08-03T09:16:50.759Z,41.59
2018-08-03T09:17:50.748Z,42.28
2018-08-03T09:18:50.839Z,41.71
2018-08-03T09:19:50.771Z,41.81
2018-08-03T09:20:50.744Z,40.35
2018-08-03T09:21:50.720Z,38.98
2018-08-03T09:22:50.720Z,39.79
2018-08-03T09:23:50.742Z,39.03
2018-08-03T09:24:50.715Z,38.55
2018-08-03T09:25:50.701Z,38.13
2018-08-03T09:26:50.694Z,38.63
2018-08-03T09:27:50.708Z,38.06
2018-08-03T09:28:50.688Z,38.92
2018-08-03T09:29:50.692Z,39.24
2018-08-03T09:30:50.738Z,38.43
2018-08-03T09:31:50.679Z,38.25
2018-08-03T09:32:50.667Z,38.15
2018-08-03T09:33:50.689Z,37.36
2018-08-03T09:34:50.655Z,36.97
2018-08-03T09:35:50.659Z,38.04
2018-08-03T09:36:50.670Z,37.70
2018-08-03T09:37:50.645Z,40.07
2018-08-03T09:38:50.677Z,40.39
2018-08-03T09:39:50.688Z,38.81
2018-08-03T09:40:50.657Z,39.00
2018-08-03T09:41:50.638Z,38.06
2018-08-03T09:42:50.677Z,37.38
2018-08-03T09:44:11.658Z,37.91
2018-08-03T09:44:50.641Z,38.17
2018-08-03T09:45:50.642Z,36.80
2018-08-03T09:46:50.655Z,36.72
2018-08-03T09:47:50.634Z,36.23
2018-08-03T09:48:50.628Z,36.13
2018-08-03T09:49:50.666Z,35.73
2018-08-03T09:50:50.626Z,35.85
2018-08-03T09:51:50.620Z,36.44
2018-08-03T09:52:50.628Z,35.73
2018-08-03T09:53:50.628Z,35.44
2018-08-03T09:54:50.630Z,36.43
2018-08-03T09:55:50.653Z,35.46
2018-08-03T09:56:50.621Z,35.83
2018-08-03T09:57:50.633Z,35.07
2018-08-03T09:58:50.642Z,36.96
2018-08-03T09:59:50.646Z,37.15
2018-08-03T10:00:50.644Z,36.26
2018-08-03T10:01:50.696Z,34.59
2018-08-03T10:02:50.667Z,34.31
2018-08-03T10:03:50.649Z,34.73
2018-08-03T10:04:50.633Z,33.64
2018-08-03T10:05:50.637Z,35.50
2018-08-03T10:06:50.652Z,36.15
2018-08-03T10:07:50.638Z,37.20
2018-08-03T10:08:50.644Z,36.43
2018-08-03T10:09:50.655Z,36.33
2018-08-03T10:10:50.640Z,35.46
2018-08-03T10:11:50.662Z,35.63
2018-08-03T10:12:50.701Z,36.44
2018-08-03T10:13:50.660Z,35.39
2018-08-03T10:14:50.652Z,35.19
2018-08-03T10:15:50.654Z,34.80
2018-08-03T10:16:50.655Z,35.37
2018-08-03T10:17:50.658Z,34.50
2018-08-03T10:18:50.672Z,34.97
2018-08-03T10:19:50.657Z,34.69
2018-08-03T10:20:50.666Z,34.61
2018-08-03T10:21:50.661Z,35.09
2018-08-03T10:22:50.669Z,33.54
2018-08-03T10:23:50.688Z,33.94
2018-08-03T10:24:50.676Z,33.36
2018-08-03T10:25:50.672Z,33.45
2018-08-03T10:26:50.672Z,33.73
2018-08-03T10:27:50.682Z,32.84
2018-08-03T10:28:50.701Z,34.10
2018-08-03T10:29:50.699Z,34.18
2018-08-03T10:30:50.708Z,34.55
2018-08-03T10:31:50.695Z,35.52
2018-08-03T10:32:50.696Z,35.99
2018-08-03T10:33:50.699Z,36.29
2018-08-03T10:34:50.704Z,35.63
2018-08-03T10:35:50.718Z,35.85
2018-08-03T10:36:50.717Z,35.09
2018-08-03T10:37:50.711Z,34.50
2018-08-03T10:38:50.711Z,33.44
2018-08-03T10:39:50.739Z,32.66
2018-08-03T10:40:50.737Z,33.64
2018-08-03T10:41:50.718Z,32.33
2018-08-03T10:42:50.743Z,32.73
2018-08-03T10:43:50.724Z,33.37
2018-08-03T10:44:50.760Z,34.81
2018-08-03T10:45:50.743Z,34.83
2018-08-03T10:46:50.737Z,35.53
2018-08-03T10:47:50.746Z,34.84
2018-08-03T10:48:50.787Z,35.46
2018-08-03T10:49:50.749Z,34.89
2018-08-03T10:50:50.763Z,34.53
2018-08-03T10:51:50.771Z,36.41
2018-08-03T10:52:50.754Z,33.75
2018-08-03T10:53:50.767Z,33.27
2018-08-03T10:54:50.766Z,34.33
2018-08-03T10:55:50.788Z,34.73
2018-08-03T10:56:50.785Z,33.40
2018-08-03T10:57:50.776Z,34.58
2018-08-03T10:58:50.789Z,36.84
2018-08-03T10:59:50.781Z,35.21
2018-08-03T11:00:50.788Z,35.60
2018-08-03T11:01:50.820Z,34.73
2018-08-03T11:02:50.794Z,32.66
2018-08-03T11:03:50.799Z,34.12
2018-08-03T11:04:50.818Z,33.62
2018-08-03T11:05:50.804Z,34.12
2018-08-03T11:06:50.826Z,32.56
2018-08-03T11:07:50.814Z,32.18
2018-08-03T11:08:50.829Z,32.57
2018-08-03T11:09:50.831Z,32.29
2018-08-03T11:10:50.825Z,31.12
2018-08-03T11:11:50.821Z,32.31
2018-08-03T11:12:50.836Z,31.02
2018-08-03T11:13:50.851Z,32.21
2018-08-03T11:14:50.842Z,31.61
2018-08-03T11:15:50.866Z,30.04
2018-08-03T11:16:50.858Z,31.73
2018-08-03T11:17:53.354Z,30.15
2018-08-03T11:18:50.857Z,30.35
2018-08-03T11:19:50.878Z,31.03
2018-08-03T11:20:50.872Z,31.63
2018-08-03T11:21:50.872Z,30.05
2018-08-03T11:22:50.892Z,30.93
2018-08-03T11:23:50.885Z,31.41
2018-08-03T11:24:50.880Z,33.88
2018-08-03T11:25:50.900Z,32.18
2018-08-03T11:26:50.908Z,34.17
2018-08-03T11:27:50.903Z,36.57
2018-08-03T11:28:50.903Z,37.07
2018-08-03T11:29:50.946Z,37.56
2018-08-03T11:30:50.913Z,37.28
2018-08-03T11:31:50.935Z,35.00
2018-08-03T11:32:50.937Z,35.14
2018-08-03T11:33:50.919Z,35.06
2018-08-03T11:34:50.938Z,32.81
2018-08-03T11:35:50.934Z,32.93
2018-08-03T11:36:50.946Z,33.44
2018-08-03T11:37:50.935Z,32.84
2018-08-03T11:38:50.937Z,32.14
2018-08-03T11:39:50.945Z,32.54
2018-08-03T11:40:51.000Z,32.46
2018-08-03T11:41:50.977Z,32.26
2018-08-03T11:42:50.962Z,31.96
2018-08-03T11:43:50.966Z,31.98
2018-08-03T11:44:50.969Z,31.50
2018-08-03T11:45:50.987Z,33.60
2018-08-03T11:46:50.972Z,31.18
2018-08-03T11:47:50.976Z,31.38
2018-08-03T11:48:50.978Z,30.30
2018-08-03T11:49:50.998Z,31.87
2018-08-03T11:50:50.992Z,31.58
2018-08-03T11:51:51.000Z,30.51
2018-08-03T11:52:51.003Z,30.69
2018-08-03T11:53:51.003Z,30.29
2018-08-03T11:54:51.024Z,30.89
2018-08-03T11:55:51.017Z,31.68
2018-08-03T11:56:51.024Z,30.79
2018-08-03T11:57:51.019Z,30.80
2018-08-03T11:58:51.026Z,31.10
2018-08-03T11:59:51.046Z,30.00
2018-08-03T12:00:51.102Z,31.48
2018-08-03T12:01:51.056Z,31.48
2018-08-03T12:02:51.048Z,31.98
2018-08-03T12:03:51.049Z,31.60
2018-08-03T12:04:51.064Z,31.77
2018-08-03T12:05:51.080Z,31.96
2018-08-03T12:06:51.065Z,31.48
2018-08-03T12:07:51.068Z,32.67
2018-08-03T12:08:51.076Z,33.09
2018-08-03T12:09:51.077Z,30.80
2018-08-03T12:10:51.110Z,30.42
2018-08-03T12:11:51.086Z,31.12
2018-08-03T12:12:51.096Z,29.93
2018-08-03T12:13:51.107Z,29.54
2018-08-03T12:14:51.106Z,29.54
2018-08-03T12:15:51.131Z,31.02
2018-08-03T12:16:51.147Z,32.29
2018-08-03T12:17:51.148Z,29.82
2018-08-03T12:18:51.125Z,31.41
2018-08-03T12:19:51.141Z,30.62
2018-08-03T12:20:51.134Z,31.51
2018-08-03T12:21:51.161Z,32.32
2018-08-03T12:22:51.161Z,30.22
2018-08-03T12:23:51.159Z,31.99
2018-08-03T12:24:51.158Z,31.99
2018-08-03T12:25:51.164Z,32.67
2018-08-03T12:26:51.187Z,31.50
2018-08-03T12:27:51.172Z,30.72
2018-08-03T12:28:51.179Z,31.51
2018-08-03T12:29:51.179Z,30.49
2018-08-03T12:30:51.186Z,31.29
2018-08-03T12:31:51.210Z,30.79
2018-08-03T12:32:51.199Z,31.37
2018-08-03T12:33:51.199Z,31.27
2018-08-03T12:34:51.208Z,31.95
2018-08-03T12:35:51.213Z,30.57
2018-08-03T12:37:12.283Z,31.96
2018-08-03T12:37:51.221Z,30.89
2018-08-03T12:38:51.225Z,31.85
2018-08-03T12:39:51.229Z,31.45
2018-08-03T12:40:51.259Z,30.87
2018-08-03T12:41:51.251Z,31.75
2018-08-03T12:42:51.260Z,30.86
2018-08-03T12:43:51.250Z,30.66
2018-08-03T12:44:51.253Z,30.36
2018-08-03T12:45:51.300Z,30.57
2018-08-03T12:46:51.260Z,31.45
2018-08-03T12:47:51.284Z,32.17
2018-08-03T12:48:51.280Z,32.66
2018-08-03T12:49:51.281Z,31.38
2018-08-03T12:50:51.283Z,32.48
2018-08-03T12:51:51.290Z,32.28
2018-08-03T12:52:51.321Z,31.96